sensor_id;sensor_type;location;lat;lon;timestamp;pressure;altitude;pressure_sealevel;temperature
59339;BMP280;45117;50.960;5.500;2023-08-24T00:02:25;100823.75;;;18.53
59339;BMP280;45117;50.960;5.500;2023-08-24T00:04:57;100828.00;;;18.63
59339;BMP280;45117;50.960;5.500;2023-08-24T00:07:33;100746.97;;;18.13
59339;BMP280;45117;50.960;5.500;2023-08-24T00:10:06;100736.69;;;18.07
59339;BMP280;45117;50.960;5.500;2023-08-24T00:12:35;100800.47;;;18.52
59339;BMP280;45117;50.960;5.500;2023-08-24T00:15:02;100742.72;;;18.12
59339;BMP280;45117;50.960;5.500;2023-08-24T00:17:30;100764.81;;;18.32
59339;BMP280;45117;50.960;5.500;2023-08-24T00:19:57;100814.84;;;18.62
59339;BMP280;45117;50.960;5.500;2023-08-24T00:22:24;100742.72;;;18.12
59339;BMP280;45117;50.960;5.500;2023-08-24T00:24:51;100803.19;;;18.43
59339;BMP280;45117;50.960;5.500;2023-08-24T00:27:17;100745.41;;;18.02
59339;BMP280;45117;50.960;5.500;2023-08-24T00:29:46;100830.28;;;18.65
59339;BMP280;45117;50.960;5.500;2023-08-24T00:32:15;100728.78;;;17.91
59339;BMP280;45117;50.960;5.500;2023-08-24T00:34:43;100804.09;;;18.40
59339;BMP280;45117;50.960;5.500;2023-08-24T00:37:10;100797.75;;;18.34
59339;BMP280;45117;50.960;5.500;2023-08-24T00:39:37;100772.59;;;18.12
59339;BMP280;45117;50.960;5.500;2023-08-24T00:42:06;100801.03;;;18.29
59339;BMP280;45117;50.960;5.500;2023-08-24T00:44:34;100745.41;;;17.93
59339;BMP280;45117;50.960;5.500;2023-08-24T00:47:10;100729.69;;;17.79
59339;BMP280;45117;50.960;5.500;2023-08-24T00:49:41;100829.16;;;18.44
59339;BMP280;45117;50.960;5.500;2023-08-24T00:52:16;100719.97;;;17.69
59339;BMP280;45117;50.960;5.500;2023-08-24T00:54:51;100795.16;;;18.21
59339;BMP280;45117;50.960;5.500;2023-08-24T00:57:18;100717.69;;;17.58
59339;BMP280;45117;50.960;5.500;2023-08-24T00:59:46;100743.81;;;17.74
59339;BMP280;45117;50.960;5.500;2023-08-24T01:02:15;100772.25;;;17.91
59339;BMP280;45117;50.960;5.500;2023-08-24T01:04:44;100821.25;;;18.28
59339;BMP280;45117;50.960;5.500;2023-08-24T01:07:21;100775.47;;;17.99
59339;BMP280;45117;50.960;5.500;2023-08-24T01:09:52;100719.63;;;17.58
59339;BMP280;45117;50.960;5.500;2023-08-24T01:12:26;100766.66;;;17.95
59339;BMP280;45117;50.960;5.500;2023-08-24T01:15:00;100693.03;;;17.53
59339;BMP280;45117;50.960;5.500;2023-08-24T01:17:31;100744.31;;;17.91
59339;BMP280;45117;50.960;5.500;2023-08-24T01:19:59;100682.78;;;17.47
59339;BMP280;45117;50.960;5.500;2023-08-24T01:22:34;100691.97;;;17.50
59339;BMP280;45117;50.960;5.500;2023-08-24T01:25:06;100739.06;;;17.87
59339;BMP280;45117;50.960;5.500;2023-08-24T01:27:36;100688.53;;;17.50
59339;BMP280;45117;50.960;5.500;2023-08-24T01:30:09;100678.25;;;17.44
59339;BMP280;45117;50.960;5.500;2023-08-24T01:32:37;100654.66;;;17.32
59339;BMP280;45117;50.960;5.500;2023-08-24T01:35:06;100742.66;;;17.84
59339;BMP280;45117;50.960;5.500;2023-08-24T01:37:34;100718.75;;;17.70
59339;BMP280;45117;50.960;5.500;2023-08-24T01:40:04;100782.25;;;18.03
59339;BMP280;45117;50.960;5.500;2023-08-24T01:42:51;100743.88;;;17.83
59339;BMP280;45117;50.960;5.500;2023-08-24T01:45:22;100688.66;;;17.46
59339;BMP280;45117;50.960;5.500;2023-08-24T01:47:52;100727.22;;;17.72
59339;BMP280;45117;50.960;5.500;2023-08-24T01:50:20;100745.38;;;17.84
59339;BMP280;45117;50.960;5.500;2023-08-24T01:52:47;100740.81;;;17.81
59339;BMP280;45117;50.960;5.500;2023-08-24T01:55:15;100784.84;;;18.16
59339;BMP280;45117;50.960;5.500;2023-08-24T01:57:45;100707.16;;;17.69
59339;BMP280;45117;50.960;5.500;2023-08-24T02:00:12;100725.13;;;17.85
59339;BMP280;45117;50.960;5.500;2023-08-24T02:02:39;100726.66;;;17.86
59339;BMP280;45117;50.960;5.500;2023-08-24T02:05:06;100717.88;;;17.82
59339;BMP280;45117;50.960;5.500;2023-08-24T02:07:33;100724.28;;;17.97
59339;BMP280;45117;50.960;5.500;2023-08-24T02:10:00;100764.66;;;18.17
59339;BMP280;45117;50.960;5.500;2023-08-24T02:12:27;100728.81;;;18.00
59339;BMP280;45117;50.960;5.500;2023-08-24T02:14:55;100689.50;;;17.74
59339;BMP280;45117;50.960;5.500;2023-08-24T02:17:22;100761.19;;;18.26
59339;BMP280;45117;50.960;5.500;2023-08-24T02:19:49;100709.19;;;17.96
59339;BMP280;45117;50.960;5.500;2023-08-24T02:22:16;100734.75;;;18.08
59339;BMP280;45117;50.960;5.500;2023-08-24T02:24:43;100745.13;;;18.19
59339;BMP280;45117;50.960;5.500;2023-08-24T02:27:10;100747.88;;;18.28
59339;BMP280;45117;50.960;5.500;2023-08-24T02:29:36;100737.94;;;18.25
59339;BMP280;45117;50.960;5.500;2023-08-24T02:32:05;100745.63;;;18.26
59339;BMP280;45117;50.960;5.500;2023-08-24T02:34:32;100720.56;;;18.13
59339;BMP280;45117;50.960;5.500;2023-08-24T02:36:59;100734.16;;;18.13
59339;BMP280;45117;50.960;5.500;2023-08-24T02:39:26;100745.78;;;18.23
59339;BMP280;45117;50.960;5.500;2023-08-24T02:41:52;100797.47;;;18.50
59339;BMP280;45117;50.960;5.500;2023-08-24T02:44:19;100794.72;;;18.41
59339;BMP280;45117;50.960;5.500;2023-08-24T02:46:48;100753.59;;;18.12
59339;BMP280;45117;50.960;5.500;2023-08-24T02:49:19;100713.22;;;17.83
59339;BMP280;45117;50.960;5.500;2023-08-24T02:51:47;100781.13;;;18.32
59339;BMP280;45117;50.960;5.500;2023-08-24T02:54:14;100722.91;;;17.84
59339;BMP280;45117;50.960;5.500;2023-08-24T02:56:41;100733.19;;;17.98
59339;BMP280;45117;50.960;5.500;2023-08-24T02:59:08;100747.84;;;18.09
59339;BMP280;45117;50.960;5.500;2023-08-24T03:01:34;100749.69;;;18.22
59339;BMP280;45117;50.960;5.500;2023-08-24T03:04:03;100795.53;;;18.60
59339;BMP280;45117;50.960;5.500;2023-08-24T03:06:32;100698.91;;;17.91
59339;BMP280;45117;50.960;5.500;2023-08-24T03:08:59;100745.28;;;18.24
59339;BMP280;45117;50.960;5.500;2023-08-24T03:11:26;100731.09;;;18.20
59339;BMP280;45117;50.960;5.500;2023-08-24T03:13:52;100693.94;;;17.99
59339;BMP280;45117;50.960;5.500;2023-08-24T03:16:19;100696.97;;;18.01
59339;BMP280;45117;50.960;5.500;2023-08-24T03:18:47;100699.09;;;18.06
59339;BMP280;45117;50.960;5.500;2023-08-24T03:21:13;100707.22;;;18.06
59339;BMP280;45117;50.960;5.500;2023-08-24T03:23:41;100690.78;;;18.00
59339;BMP280;45117;50.960;5.500;2023-08-24T03:26:08;100653.44;;;17.83
59339;BMP280;45117;50.960;5.500;2023-08-24T03:28:35;100693.19;;;18.07
59339;BMP280;45117;50.960;5.500;2023-08-24T03:31:02;100641.66;;;17.76
59339;BMP280;45117;50.960;5.500;2023-08-24T03:33:28;100677.94;;;18.01
59339;BMP280;45117;50.960;5.500;2023-08-24T03:35:56;100657.72;;;17.93
59339;BMP280;45117;50.960;5.500;2023-08-24T03:38:22;100631.00;;;17.91
59339;BMP280;45117;50.960;5.500;2023-08-24T03:40:50;100640.66;;;18.10
59339;BMP280;45117;50.960;5.500;2023-08-24T03:43:17;100643.53;;;18.16
59339;BMP280;45117;50.960;5.500;2023-08-24T03:45:43;100630.41;;;18.05
59339;BMP280;45117;50.960;5.500;2023-08-24T03:48:10;100595.34;;;17.80
59339;BMP280;45117;50.960;5.500;2023-08-24T03:50:37;100607.31;;;17.92
59339;BMP280;45117;50.960;5.500;2023-08-24T03:53:04;100610.03;;;17.92
59339;BMP280;45117;50.960;5.500;2023-08-24T03:55:30;100651.25;;;18.27
59339;BMP280;45117;50.960;5.500;2023-08-24T03:57:59;100628.41;;;18.24
59339;BMP280;45117;50.960;5.500;2023-08-24T04:00:26;100630.88;;;18.22
59339;BMP280;45117;50.960;5.500;2023-08-24T04:02:52;100614.06;;;18.24
59339;BMP280;45117;50.960;5.500;2023-08-24T04:05:19;100583.75;;;17.98
59339;BMP280;45117;50.960;5.500;2023-08-24T04:07:46;100606.84;;;18.21
59339;BMP280;45117;50.960;5.500;2023-08-24T04:10:13;100590.53;;;18.12
59339;BMP280;45117;50.960;5.500;2023-08-24T04:12:39;100622.81;;;18.28
59339;BMP280;45117;50.960;5.500;2023-08-24T04:15:09;100616.19;;;18.20
59339;BMP280;45117;50.960;5.500;2023-08-24T04:17:36;100568.06;;;17.84
59339;BMP280;45117;50.960;5.500;2023-08-24T04:20:03;100612.72;;;18.19
59339;BMP280;45117;50.960;5.500;2023-08-24T04:22:31;100631.72;;;18.28
59339;BMP280;45117;50.960;5.500;2023-08-24T04:24:58;100576.97;;;17.84
59339;BMP280;45117;50.960;5.500;2023-08-24T04:27:25;100639.13;;;18.28
59339;BMP280;45117;50.960;5.500;2023-08-24T04:29:52;100628.16;;;18.22
59339;BMP280;45117;50.960;5.500;2023-08-24T04:32:20;100579.38;;;17.91
59339;BMP280;45117;50.960;5.500;2023-08-24T04:34:46;100588.44;;;17.97
59339;BMP280;45117;50.960;5.500;2023-08-24T04:37:13;100594.78;;;18.03
59339;BMP280;45117;50.960;5.500;2023-08-24T04:39:40;100613.31;;;18.14
59339;BMP280;45117;50.960;5.500;2023-08-24T04:42:06;100578.19;;;17.92
59339;BMP280;45117;50.960;5.500;2023-08-24T04:44:33;100631.00;;;18.19
59339;BMP280;45117;50.960;5.500;2023-08-24T04:47:00;100570.47;;;17.82
59339;BMP280;45117;50.960;5.500;2023-08-24T04:49:29;100562.75;;;17.80
59339;BMP280;45117;50.960;5.500;2023-08-24T04:51:56;100615.31;;;18.04
59339;BMP280;45117;50.960;5.500;2023-08-24T04:54:23;100609.88;;;18.04
59339;BMP280;45117;50.960;5.500;2023-08-24T04:56:57;100596.44;;;17.92
59339;BMP280;45117;50.960;5.500;2023-08-24T04:59:24;100572.16;;;17.79
59339;BMP280;45117;50.960;5.500;2023-08-24T05:01:51;100539.09;;;17.62
59339;BMP280;45117;50.960;5.500;2023-08-24T05:04:17;100589.78;;;18.02
59339;BMP280;45117;50.960;5.500;2023-08-24T05:06:45;100581.78;;;17.98
59339;BMP280;45117;50.960;5.500;2023-08-24T05:09:12;100560.03;;;17.80
59339;BMP280;45117;50.960;5.500;2023-08-24T05:11:39;100575.00;;;17.94
59339;BMP280;45117;50.960;5.500;2023-08-24T05:14:05;100604.31;;;18.08
59339;BMP280;45117;50.960;5.500;2023-08-24T05:16:32;100611.69;;;18.17
59339;BMP280;45117;50.960;5.500;2023-08-24T05:19:04;100567.31;;;17.92
59339;BMP280;45117;50.960;5.500;2023-08-24T05:21:34;100548.44;;;17.79
59339;BMP280;45117;50.960;5.500;2023-08-24T05:24:03;100608.50;;;18.18
59339;BMP280;45117;50.960;5.500;2023-08-24T05:26:30;100607.75;;;18.27
59339;BMP280;45117;50.960;5.500;2023-08-24T05:28:56;100606.81;;;18.39
59339;BMP280;45117;50.960;5.500;2023-08-24T05:31:23;100569.09;;;18.32
59339;BMP280;45117;50.960;5.500;2023-08-24T05:33:50;100618.16;;;19.79
59339;BMP280;45117;50.960;5.500;2023-08-24T05:36:16;100575.16;;;20.42
59339;BMP280;45117;50.960;5.500;2023-08-24T05:38:43;100561.06;;;19.84
59339;BMP280;45117;50.960;5.500;2023-08-24T05:41:13;100549.97;;;20.32
59339;BMP280;45117;50.960;5.500;2023-08-24T05:43:40;100580.81;;;21.23
59339;BMP280;45117;50.960;5.500;2023-08-24T05:46:07;100562.75;;;21.98
59339;BMP280;45117;50.960;5.500;2023-08-24T05:48:33;100504.00;;;21.15
59339;BMP280;45117;50.960;5.500;2023-08-24T05:51:00;100525.25;;;22.04
59339;BMP280;45117;50.960;5.500;2023-08-24T05:53:27;100551.41;;;23.66
59339;BMP280;45117;50.960;5.500;2023-08-24T05:55:57;100559.28;;;25.33
59339;BMP280;45117;50.960;5.500;2023-08-24T05:58:28;100546.78;;;25.62
59339;BMP280;45117;50.960;5.500;2023-08-24T06:00:58;100459.53;;;26.12
59339;BMP280;45117;50.960;5.500;2023-08-24T06:03:25;100513.00;;;27.34
59339;BMP280;45117;50.960;5.500;2023-08-24T06:05:52;100534.09;;;27.32
59339;BMP280;45117;50.960;5.500;2023-08-24T06:08:18;100492.47;;;27.88
59339;BMP280;45117;50.960;5.500;2023-08-24T06:10:45;100500.00;;;28.40
59339;BMP280;45117;50.960;5.500;2023-08-24T06:13:12;100460.41;;;27.13
59339;BMP280;45117;50.960;5.500;2023-08-24T06:15:41;100499.50;;;28.02
59339;BMP280;45117;50.960;5.500;2023-08-24T06:18:10;100477.03;;;28.32
59339;BMP280;45117;50.960;5.500;2023-08-24T06:20:37;100489.56;;;28.33
59339;BMP280;45117;50.960;5.500;2023-08-24T06:23:03;100417.84;;;27.80
59339;BMP280;45117;50.960;5.500;2023-08-24T06:25:30;100475.50;;;27.97
59339;BMP280;45117;50.960;5.500;2023-08-24T06:27:57;100474.41;;;28.94
59339;BMP280;45117;50.960;5.500;2023-08-24T06:30:24;100492.22;;;30.28
59339;BMP280;45117;50.960;5.500;2023-08-24T06:32:52;100500.47;;;31.40
59339;BMP280;45117;50.960;5.500;2023-08-24T06:35:19;100482.13;;;29.94
59339;BMP280;45117;50.960;5.500;2023-08-24T06:37:45;100452.78;;;30.88
59339;BMP280;45117;50.960;5.500;2023-08-24T06:40:12;100452.97;;;30.90
59339;BMP280;45117;50.960;5.500;2023-08-24T06:42:39;100463.31;;;31.83
59339;BMP280;45117;50.960;5.500;2023-08-24T06:45:07;100522.09;;;32.76
59339;BMP280;45117;50.960;5.500;2023-08-24T06:47:35;100497.50;;;32.08
59339;BMP280;45117;50.960;5.500;2023-08-24T06:50:04;100526.56;;;33.73
59339;BMP280;45117;50.960;5.500;2023-08-24T06:52:30;100523.06;;;33.38
59339;BMP280;45117;50.960;5.500;2023-08-24T06:54:57;100511.44;;;32.65
59339;BMP280;45117;50.960;5.500;2023-08-24T06:57:24;100522.44;;;32.81
59339;BMP280;45117;50.960;5.500;2023-08-24T06:59:51;100500.22;;;32.98
59339;BMP280;45117;50.960;5.500;2023-08-24T07:02:18;100517.81;;;33.25
59339;BMP280;45117;50.960;5.500;2023-08-24T07:04:46;100471.56;;;32.88
59339;BMP280;45117;50.960;5.500;2023-08-24T07:07:17;100513.97;;;32.46
59339;BMP280;45117;50.960;5.500;2023-08-24T07:09:44;100501.22;;;32.68
59339;BMP280;45117;50.960;5.500;2023-08-24T07:12:11;100491.19;;;32.08
59339;BMP280;45117;50.960;5.500;2023-08-24T07:14:40;100492.72;;;31.15
59339;BMP280;45117;50.960;5.500;2023-08-24T07:17:06;100504.06;;;31.80
59339;BMP280;45117;50.960;5.500;2023-08-24T07:19:33;100506.22;;;31.49
59339;BMP280;45117;50.960;5.500;2023-08-24T07:22:00;100509.19;;;31.36
59339;BMP280;45117;50.960;5.500;2023-08-24T07:24:29;100480.31;;;30.71
59339;BMP280;45117;50.960;5.500;2023-08-24T07:27:01;100494.94;;;31.09
59339;BMP280;45117;50.960;5.500;2023-08-24T07:29:34;100488.25;;;30.90
59339;BMP280;45117;50.960;5.500;2023-08-24T07:32:01;100434.09;;;29.92
59339;BMP280;45117;50.960;5.500;2023-08-24T07:34:31;100523.41;;;29.77
59339;BMP280;45117;50.960;5.500;2023-08-24T07:36:57;100501.03;;;30.19
59339;BMP280;45117;50.960;5.500;2023-08-24T07:39:25;100423.56;;;29.54
59339;BMP280;45117;50.960;5.500;2023-08-24T07:41:53;100500.63;;;29.71
59339;BMP280;45117;50.960;5.500;2023-08-24T07:44:21;100440.59;;;29.09
59339;BMP280;45117;50.960;5.500;2023-08-24T07:46:48;100428.13;;;28.95
59339;BMP280;45117;50.960;5.500;2023-08-24T07:49:15;100482.97;;;29.04
59339;BMP280;45117;50.960;5.500;2023-08-24T07:51:41;100433.41;;;28.85
59339;BMP280;45117;50.960;5.500;2023-08-24T07:54:09;100446.94;;;28.76
59339;BMP280;45117;50.960;5.500;2023-08-24T07:56:36;100423.88;;;29.22
59339;BMP280;45117;50.960;5.500;2023-08-24T07:59:04;100441.34;;;29.66
59339;BMP280;45117;50.960;5.500;2023-08-24T08:01:39;100411.25;;;29.35
59339;BMP280;45117;50.960;5.500;2023-08-24T08:04:06;100417.31;;;28.63
59339;BMP280;45117;50.960;5.500;2023-08-24T08:06:33;100492.81;;;29.34
59339;BMP280;45117;50.960;5.500;2023-08-24T08:09:00;100472.69;;;28.37
59339;BMP280;45117;50.960;5.500;2023-08-24T08:11:29;100437.88;;;28.54
59339;BMP280;45117;50.960;5.500;2023-08-24T08:13:57;100456.72;;;28.56
59339;BMP280;45117;50.960;5.500;2023-08-24T08:19:36;100419.50;;;27.97
59339;BMP280;45117;50.960;5.500;2023-08-24T08:22:05;100496.81;;;29.04
59339;BMP280;45117;50.960;5.500;2023-08-24T08:24:33;100437.66;;;28.18
59339;BMP280;45117;50.960;5.500;2023-08-24T08:26:59;100409.66;;;27.88
59339;BMP280;45117;50.960;5.500;2023-08-24T08:29:26;100500.31;;;28.37
59339;BMP280;45117;50.960;5.500;2023-08-24T08:31:53;100486.50;;;28.24
59339;BMP280;45117;50.960;5.500;2023-08-24T08:40:38;100428.78;;;27.60
59339;BMP280;45117;50.960;5.500;2023-08-24T08:43:06;100462.00;;;27.80
59339;BMP280;45117;50.960;5.500;2023-08-24T08:45:33;100433.97;;;27.90
59339;BMP280;45117;50.960;5.500;2023-08-24T08:48:01;100447.38;;;28.33
59339;BMP280;45117;50.960;5.500;2023-08-24T08:50:29;100430.16;;;27.66
59339;BMP280;45117;50.960;5.500;2023-08-24T08:52:56;100392.06;;;27.65
59339;BMP280;45117;50.960;5.500;2023-08-24T08:55:24;100398.50;;;27.67
59339;BMP280;45117;50.960;5.500;2023-08-24T08:57:56;100373.75;;;27.88
59339;BMP280;45117;50.960;5.500;2023-08-24T09:00:24;100338.25;;;27.32
59339;BMP280;45117;50.960;5.500;2023-08-24T09:02:53;100390.84;;;28.00
59339;BMP280;45117;50.960;5.500;2023-08-24T09:05:20;100363.09;;;28.05
59339;BMP280;45117;50.960;5.500;2023-08-24T09:07:48;100399.31;;;28.15
59339;BMP280;45117;50.960;5.500;2023-08-24T09:10:15;100397.66;;;28.33
59339;BMP280;45117;50.960;5.500;2023-08-24T09:12:41;100406.84;;;28.48
59339;BMP280;45117;50.960;5.500;2023-08-24T09:15:10;100387.56;;;28.35
59339;BMP280;45117;50.960;5.500;2023-08-24T09:17:42;100421.28;;;28.75
59339;BMP280;45117;50.960;5.500;2023-08-24T09:20:10;100419.25;;;29.17
59339;BMP280;45117;50.960;5.500;2023-08-24T09:22:37;100456.25;;;29.27
59339;BMP280;45117;50.960;5.500;2023-08-24T09:25:08;100470.59;;;29.26
59339;BMP280;45117;50.960;5.500;2023-08-24T09:27:35;100457.97;;;28.76
59339;BMP280;45117;50.960;5.500;2023-08-24T09:30:02;100422.38;;;28.72
59339;BMP280;45117;50.960;5.500;2023-08-24T09:32:32;100383.75;;;28.59
59339;BMP280;45117;50.960;5.500;2023-08-24T09:35:02;100367.38;;;28.82
59339;BMP280;45117;50.960;5.500;2023-08-24T09:37:31;100465.06;;;29.83
59339;BMP280;45117;50.960;5.500;2023-08-24T09:40:01;100455.19;;;29.66
59339;BMP280;45117;50.960;5.500;2023-08-24T09:42:37;100446.88;;;29.38
59339;BMP280;45117;50.960;5.500;2023-08-24T09:45:04;100436.38;;;30.09
59339;BMP280;45117;50.960;5.500;2023-08-24T09:47:32;100455.59;;;29.71
59339;BMP280;45117;50.960;5.500;2023-08-24T09:49:59;100457.88;;;29.51
59339;BMP280;45117;50.960;5.500;2023-08-24T09:52:27;100445.50;;;29.52
59339;BMP280;45117;50.960;5.500;2023-08-24T09:54:56;100460.88;;;29.61
59339;BMP280;45117;50.960;5.500;2023-08-24T09:57:25;100464.31;;;29.05
59339;BMP280;45117;50.960;5.500;2023-08-24T09:59:52;100474.16;;;29.13
59339;BMP280;45117;50.960;5.500;2023-08-24T10:02:21;100467.41;;;28.80
59339;BMP280;45117;50.960;5.500;2023-08-24T10:04:52;100466.25;;;29.38
59339;BMP280;45117;50.960;5.500;2023-08-24T10:07:22;100423.69;;;28.92
59339;BMP280;45117;50.960;5.500;2023-08-24T10:09:55;100473.66;;;28.94
59339;BMP280;45117;50.960;5.500;2023-08-24T10:12:27;100477.16;;;28.94
59339;BMP280;45117;50.960;5.500;2023-08-24T10:15:00;100478.84;;;28.98
59339;BMP280;45117;50.960;5.500;2023-08-24T10:17:29;100504.19;;;28.88
59339;BMP280;45117;50.960;5.500;2023-08-24T10:19:58;100504.47;;;28.77
59339;BMP280;45117;50.960;5.500;2023-08-24T10:22:29;100504.28;;;28.15
59339;BMP280;45117;50.960;5.500;2023-08-24T10:24:57;100534.75;;;28.09
59339;BMP280;45117;50.960;5.500;2023-08-24T10:27:27;100568.28;;;27.74
59339;BMP280;45117;50.960;5.500;2023-08-24T10:29:53;100581.28;;;27.28
59339;BMP280;45117;50.960;5.500;2023-08-24T10:32:21;100596.81;;;26.94
59339;BMP280;45117;50.960;5.500;2023-08-24T10:34:48;100613.97;;;26.81
59339;BMP280;45117;50.960;5.500;2023-08-24T10:37:16;100622.00;;;26.60
59339;BMP280;45117;50.960;5.500;2023-08-24T10:39:46;100607.53;;;26.30
59339;BMP280;45117;50.960;5.500;2023-08-24T10:42:13;100620.41;;;26.22
59339;BMP280;45117;50.960;5.500;2023-08-24T10:44:44;100610.75;;;26.04
59339;BMP280;45117;50.960;5.500;2023-08-24T10:47:12;100638.25;;;25.74
59339;BMP280;45117;50.960;5.500;2023-08-24T10:49:39;100609.94;;;25.44
59339;BMP280;45117;50.960;5.500;2023-08-24T10:52:21;100622.72;;;25.35
59339;BMP280;45117;50.960;5.500;2023-08-24T10:54:48;100618.00;;;25.25
59339;BMP280;45117;50.960;5.500;2023-08-24T10:57:19;100615.31;;;25.19
59339;BMP280;45117;50.960;5.500;2023-08-24T10:59:58;100596.47;;;24.88
59339;BMP280;45117;50.960;5.500;2023-08-24T11:02:26;100541.41;;;24.41
59339;BMP280;45117;50.960;5.500;2023-08-24T11:05:06;100570.63;;;24.22
59339;BMP280;45117;50.960;5.500;2023-08-24T11:07:34;100538.72;;;23.85
59339;BMP280;45117;50.960;5.500;2023-08-24T11:10:20;100475.34;;;23.44
59339;BMP280;45117;50.960;5.500;2023-08-24T11:13:07;100470.88;;;23.36
59339;BMP280;45117;50.960;5.500;2023-08-24T11:15:45;100555.19;;;23.96
59339;BMP280;45117;50.960;5.500;2023-08-24T11:18:13;100512.25;;;23.65
59339;BMP280;45117;50.960;5.500;2023-08-24T11:20:42;100494.06;;;23.57
59339;BMP280;45117;50.960;5.500;2023-08-24T11:23:11;100446.94;;;23.47
59339;BMP280;45117;50.960;5.500;2023-08-24T11:25:38;100507.53;;;23.88
59339;BMP280;45117;50.960;5.500;2023-08-24T11:28:05;100444.47;;;23.66
59339;BMP280;45117;50.960;5.500;2023-08-24T11:30:32;100442.22;;;23.81
59339;BMP280;45117;50.960;5.500;2023-08-24T11:32:59;100423.53;;;23.52
59339;BMP280;45117;50.960;5.500;2023-08-24T11:35:26;100425.03;;;23.64
59339;BMP280;45117;50.960;5.500;2023-08-24T11:37:56;100399.84;;;23.49
59339;BMP280;45117;50.960;5.500;2023-08-24T11:40:25;100384.69;;;23.42
59339;BMP280;45117;50.960;5.500;2023-08-24T11:42:56;100335.38;;;23.20
59339;BMP280;45117;50.960;5.500;2023-08-24T11:45:23;100319.19;;;23.16
59339;BMP280;45117;50.960;5.500;2023-08-24T11:47:50;100327.63;;;23.18
59339;BMP280;45117;50.960;5.500;2023-08-24T11:50:16;100310.94;;;23.27
59339;BMP280;45117;50.960;5.500;2023-08-24T11:52:43;100272.84;;;23.02
59339;BMP280;45117;50.960;5.500;2023-08-24T11:55:10;100335.81;;;23.52
59339;BMP280;45117;50.960;5.500;2023-08-24T11:57:38;100326.09;;;23.62
59339;BMP280;45117;50.960;5.500;2023-08-24T12:00:06;100274.56;;;23.33
59339;BMP280;45117;50.960;5.500;2023-08-24T12:02:34;100284.50;;;23.41
59339;BMP280;45117;50.960;5.500;2023-08-24T12:05:06;100266.56;;;23.46
59339;BMP280;45117;50.960;5.500;2023-08-24T12:07:32;100281.25;;;23.48
59339;BMP280;45117;50.960;5.500;2023-08-24T12:10:00;100310.34;;;23.74
59339;BMP280;45117;50.960;5.500;2023-08-24T12:12:27;100296.81;;;23.98
59339;BMP280;45117;50.960;5.500;2023-08-24T12:14:56;100263.63;;;23.96
59339;BMP280;45117;50.960;5.500;2023-08-24T12:17:23;100304.38;;;24.33
59339;BMP280;45117;50.960;5.500;2023-08-24T12:19:57;100324.72;;;24.49
59339;BMP280;45117;50.960;5.500;2023-08-24T12:22:24;100324.22;;;24.50
59339;BMP280;45117;50.960;5.500;2023-08-24T12:24:50;100336.28;;;24.30
59339;BMP280;45117;50.960;5.500;2023-08-24T12:27:17;100325.94;;;24.07
59339;BMP280;45117;50.960;5.500;2023-08-24T12:29:45;100358.75;;;24.35
59339;BMP280;45117;50.960;5.500;2023-08-24T12:32:13;100366.97;;;24.35
59339;BMP280;45117;50.960;5.500;2023-08-24T12:34:41;100365.81;;;24.19
59339;BMP280;45117;50.960;5.500;2023-08-24T12:37:09;100378.09;;;23.95
59339;BMP280;45117;50.960;5.500;2023-08-24T12:39:36;100387.50;;;24.17
59339;BMP280;45117;50.960;5.500;2023-08-24T12:42:09;100378.25;;;24.20
59339;BMP280;45117;50.960;5.500;2023-08-24T12:44:36;100413.19;;;24.25
59339;BMP280;45117;50.960;5.500;2023-08-24T12:47:03;100392.59;;;23.85
59339;BMP280;45117;50.960;5.500;2023-08-24T12:49:31;100431.47;;;23.89
59339;BMP280;45117;50.960;5.500;2023-08-24T12:51:58;100431.00;;;23.85
59339;BMP280;45117;50.960;5.500;2023-08-24T12:54:25;100427.03;;;23.75
59339;BMP280;45117;50.960;5.500;2023-08-24T12:56:54;100436.47;;;23.90
59339;BMP280;45117;50.960;5.500;2023-08-24T12:59:21;100426.47;;;24.04
59339;BMP280;45117;50.960;5.500;2023-08-24T13:01:48;100354.25;;;23.40
59339;BMP280;45117;50.960;5.500;2023-08-24T13:04:14;100357.22;;;23.64
59339;BMP280;45117;50.960;5.500;2023-08-24T13:06:42;100395.16;;;23.49
59339;BMP280;45117;50.960;5.500;2023-08-24T13:09:09;100429.06;;;23.57
59339;BMP280;45117;50.960;5.500;2023-08-24T13:11:38;100391.88;;;23.23
59339;BMP280;45117;50.960;5.500;2023-08-24T13:14:05;100357.50;;;22.94
59339;BMP280;45117;50.960;5.500;2023-08-24T13:16:32;100365.22;;;22.95
59339;BMP280;45117;50.960;5.500;2023-08-24T13:19:02;100366.00;;;23.07
59339;BMP280;45117;50.960;5.500;2023-08-24T13:21:28;100413.31;;;23.30
59339;BMP280;45117;50.960;5.500;2023-08-24T13:23:56;100405.09;;;23.13
59339;BMP280;45117;50.960;5.500;2023-08-24T13:26:23;100389.66;;;23.16
59339;BMP280;45117;50.960;5.500;2023-08-24T13:28:50;100355.25;;;22.87
59339;BMP280;45117;50.960;5.500;2023-08-24T13:31:17;100401.06;;;22.98
59339;BMP280;45117;50.960;5.500;2023-08-24T13:33:44;100415.22;;;22.85
59339;BMP280;45117;50.960;5.500;2023-08-24T13:36:11;100401.25;;;22.77
59339;BMP280;45117;50.960;5.500;2023-08-24T13:38:38;100385.56;;;22.67
59339;BMP280;45117;50.960;5.500;2023-08-24T13:41:06;100369.06;;;22.50
59339;BMP280;45117;50.960;5.500;2023-08-24T13:43:33;100404.00;;;22.72
59339;BMP280;45117;50.960;5.500;2023-08-24T13:46:00;100399.69;;;22.48
59339;BMP280;45117;50.960;5.500;2023-08-24T13:48:26;100398.38;;;22.38
59339;BMP280;45117;50.960;5.500;2023-08-24T13:50:54;100388.69;;;22.37
59339;BMP280;45117;50.960;5.500;2023-08-24T13:53:22;100319.00;;;21.73
59339;BMP280;45117;50.960;5.500;2023-08-24T13:55:48;100349.88;;;21.85
59339;BMP280;45117;50.960;5.500;2023-08-24T13:58:16;100388.50;;;22.04
59339;BMP280;45117;50.960;5.500;2023-08-24T14:00:43;100343.94;;;21.55
59339;BMP280;45117;50.960;5.500;2023-08-24T14:03:10;100356.97;;;21.71
59339;BMP280;45117;50.960;5.500;2023-08-24T14:05:38;100259.72;;;21.16
59339;BMP280;45117;50.960;5.500;2023-08-24T14:08:05;100333.34;;;21.62
59339;BMP280;45117;50.960;5.500;2023-08-24T14:10:33;100307.03;;;21.34
59339;BMP280;45117;50.960;5.500;2023-08-24T14:12:59;100302.72;;;21.21